Terminal Aerodrome Forecast
Issued by NWS

Current Version | Previous Version | Graphics & Text | Print | Product List | Glossary Off
Versions: 1 2 3 4 5 6 7 8 9 10 11 12 13 14 15 16 17 18 19 20 21 22 23 24 25 26 27 28 29 30

000
FTUS42 KILM 152300
TAFCRE
TAF
KCRE 152321Z 1600/1624 07003KT P6SM SCT020 BKN040
     FM160700 00000KT 5SM BR VCSH SCT008 OVC015
     FM161500 01005KT P6SM BKN020 BKN100
     FM161800 15006KT P6SM SCT030 BKN250=

USA.gov is the U.S. government's official web portal to all federal, state and local government web resources and services.